Time;durP1;ratioP1;P1;durP2;ratioP2;P2;SDS_P1;SDS_P2;PMS_P1;PMS_P2;Temp;Humidity;BMP_temperature;BMP_pressure;BME280_temperature;BME280_humidity;BME280_pressure;Samples;Min_cycle;Max_cycle;Signal;HPM_P1;HPM_P2
2022/07/04 00:00:11;;;;;;;2.10;1.90;;;;;;;26.67;38.93;102085.03;5072662;28;20033;-71
2022/07/04 00:02:38;;;;;;;6.38;1.80;;;;;;;26.89;38.33;102083.81;5075679;28;20478;-71
2022/07/04 00:05:04;;;;;;;4.18;2.28;;;;;;;26.63;38.92;102082.63;5073001;28;20107;-71
2022/07/04 00:07:30;;;;;;;3.92;1.70;;;;;;;26.48;38.94;102089.75;5071888;28;20035;-71
2022/07/04 00:09:55;;;;;;;5.38;1.85;;;;;;;26.66;39.00;102083.28;5089230;28;20024;-71
2022/07/04 00:12:21;;;;;;;5.88;2.10;;;;;;;26.71;38.79;102077.72;5093592;28;20460;-71
2022/07/04 00:14:46;;;;;;;5.65;2.15;;;;;;;26.39;39.25;102080.41;5074663;28;20024;-71
2022/07/04 00:17:11;;;;;;;2.78;2.20;;;;;;;26.37;39.22;102087.69;5091605;28;20446;-71
2022/07/04 00:19:37;;;;;;;6.07;2.20;;;;;;;26.01;40.12;102070.88;5092282;28;20027;-71
2022/07/04 00:22:03;;;;;;;3.03;1.95;;;;;;;26.20;39.43;102081.47;5089299;28;20028;-71
2022/07/04 00:24:28;;;;;;;5.13;2.03;;;;;;;26.47;39.27;102078.13;5070817;28;20064;-71
2022/07/04 00:26:53;;;;;;;7.03;2.65;;;;;;;26.44;39.32;102072.97;5090256;28;20032;-72
2022/07/04 00:29:19;;;;;;;9.68;2.35;;;;;;;26.69;38.64;102075.06;5077636;28;20039;-72
2022/07/04 00:31:44;;;;;;;7.60;2.50;;;;;;;26.50;38.81;102072.63;5092102;28;20468;-72
2022/07/04 00:34:10;;;;;;;5.68;2.42;;;;;;;26.31;39.56;102069.25;5091024;28;20032;-71
2022/07/04 00:36:35;;;;;;;4.13;2.83;;;;;;;25.77;40.14;102078.44;5089524;28;20020;-71
2022/07/04 00:39:01;;;;;;;6.18;2.53;;;;;;;25.93;39.87;102067.78;5082108;28;20033;-71
2022/07/04 00:41:26;;;;;;;7.32;2.40;;;;;;;25.93;40.45;102061.56;5074466;28;20403;-71
2022/07/04 00:44:12;;;;;;;3.78;2.47;;;;;;;26.18;39.52;102061.91;5034662;28;20027;-71
2022/07/04 00:46:37;;;;;;;3.83;2.22;;;;;;;25.95;40.36;102063.19;5034962;28;20029;-71
2022/07/04 00:49:04;;;;;;;8.18;2.47;;;;;;;25.93;40.36;102059.75;5035760;28;20039;-71
2022/07/04 00:51:29;;;;;;;4.50;2.40;;;;;;;26.20;39.64;102060.03;5034013;28;20027;-71
2022/07/04 00:53:55;;;;;;;4.60;2.30;;;;;;;25.60;41.00;102062.47;5052707;28;20408;-71
2022/07/04 00:56:22;;;;;;;6.55;2.30;;;;;;;25.90;40.50;102062.59;5034690;28;20035;-71
2022/07/04 00:58:47;;;;;;;5.18;2.22;;;;;;;25.83;41.11;102056.72;5050784;28;20036;-71
2022/07/04 01:01:13;;;;;;;4.63;2.40;;;;;;;25.94;40.15;102060.59;5046882;28;20021;-71
2022/07/04 01:03:38;;;;;;;3.67;2.50;;;;;;;25.87;40.80;102057.38;5043879;28;20047;-71
2022/07/04 01:06:05;;;;;;;3.63;2.50;;;;;;;25.40;41.85;102059.03;5051763;28;20039;-71
2022/07/04 01:08:30;;;;;;;8.30;2.67;;;;;;;25.94;40.51;102056.13;5048466;28;20036;-71
2022/07/04 01:10:56;;;;;;;4.28;2.90;;;;;;;25.40;41.50;102059.03;5047498;28;20029;-71
2022/07/04 01:13:23;;;;;;;3.10;2.80;;;;;;;25.79;40.54;102056.94;5033661;28;20473;-71
2022/07/04 01:15:50;;;;;;;7.40;2.90;;;;;;;25.29;41.90;102056.91;5034166;28;20382;-71
2022/07/04 01:18:16;;;;;;;7.78;2.72;;;;;;;25.96;40.74;102050.66;5037960;28;20392;-71
2022/07/04 01:20:41;;;;;;;4.88;2.65;;;;;;;25.97;40.65;102052.41;5070221;28;20036;-71
2022/07/04 01:23:07;;;;;;;7.28;2.65;;;;;;;26.12;40.19;102051.56;5048618;28;20032;-71
2022/07/04 01:25:32;;;;;;;5.18;2.90;;;;;;;25.90;40.85;102050.06;5033117;28;20087;-71
2022/07/04 01:28:00;;;;;;;5.90;3.08;;;;;;;25.85;40.76;102049.44;5052629;28;20108;-71
2022/07/04 01:30:26;;;;;;;7.22;2.70;;;;;;;25.71;41.36;102046.69;5033889;28;20036;-71
2022/07/04 01:32:51;;;;;;;3.17;2.25;;;;;;;25.71;41.43;102046.69;5039163;28;20460;-71
2022/07/04 01:35:16;;;;;;;4.82;2.40;;;;;;;25.64;41.60;102039.94;5052040;28;20040;-71
2022/07/04 01:37:42;;;;;;;5.30;2.80;;;;;;;25.45;41.97;102030.22;5035115;28;20025;-71
2022/07/04 01:40:08;;;;;;;4.05;2.38;;;;;;;25.57;41.51;102037.59;5064808;28;20036;-71
2022/07/04 01:42:33;;;;;;;6.95;2.53;;;;;;;25.63;41.18;102031.03;5052972;28;20131;-71
2022/07/04 01:44:58;;;;;;;3.45;2.33;;;;;;;26.11;40.49;102039.13;5090566;28;20118;-71
2022/07/04 01:47:24;;;;;;;6.70;2.47;;;;;;;25.80;41.04;102032.78;5072428;28;20494;-71
2022/07/04 01:49:49;;;;;;;7.18;2.65;;;;;;;25.40;41.66;102033.16;5070432;28;20454;-71
2022/07/04 01:52:15;;;;;;;4.05;2.67;;;;;;;24.71;43.27;102040.25;5070457;28;20082;-71
2022/07/04 01:54:41;;;;;;;6.10;2.78;;;;;;;24.42;43.81;102028.34;5073798;28;20028;-71
2022/07/04 01:57:07;;;;;;;4.25;2.30;;;;;;;24.89;43.15;102033.13;5070169;28;20400;-71
2022/07/04 02:02:16;;;;;;;4.88;2.53;;;;;;;25.53;41.99;102033.34;5084317;28;20040;-71
2022/07/04 02:04:41;;;;;;;3.80;2.55;;;;;;;25.17;42.88;102038.81;5071130;28;20021;-71
2022/07/04 02:07:07;;;;;;;6.43;3.90;;;;;;;25.16;42.67;102035.28;5071555;28;20028;-71
2022/07/04 02:09:33;;;;;;;6.95;3.10;;;;;;;25.07;42.90;102030.41;5083907;28;20061;-71
2022/07/04 02:14:43;;;;;;;9.88;3.13;;;;;;;25.30;42.25;102028.34;5091271;28;20088;-71
2022/07/04 02:17:09;;;;;;;13.55;2.75;;;;;;;25.50;42.12;102012.13;5085563;28;20092;-71
2022/07/04 02:19:34;;;;;;;4.10;2.78;;;;;;;25.74;41.04;102020.59;5080965;28;20468;-71
2022/07/04 02:21:59;;;;;;;7.13;3.38;;;;;;;25.81;41.09;102022.94;5069254;28;20031;-71
2022/07/04 02:24:25;;;;;;;3.95;2.10;;;;;;;25.71;41.48;102020.75;5087914;28;20033;-71
2022/07/04 02:26:50;;;;;;;3.42;2.35;;;;;;;25.96;40.84;102021.22;5088596;28;20059;-71
2022/07/04 02:29:16;;;;;;;5.75;2.25;;;;;;;25.66;41.55;102030.00;5091148;28;20032;-71
2022/07/04 02:31:41;;;;;;;6.05;2.47;;;;;;;25.31;42.65;102016.72;5090258;28;20024;-71
2022/07/04 02:34:07;;;;;;;4.07;2.70;;;;;;;25.37;42.31;102027.09;5088485;28;20028;-71
2022/07/04 02:36:32;;;;;;;6.50;2.88;;;;;;;25.42;41.96;102025.03;5068603;28;20031;-71
2022/07/04 02:38:58;;;;;;;5.07;3.00;;;;;;;25.45;42.10;102024.88;5070977;28;20529;-71
2022/07/04 02:41:23;;;;;;;5.68;2.30;;;;;;;25.97;41.06;102025.63;5070038;28;20115;-71
2022/07/04 02:43:48;;;;;;;4.90;2.60;;;;;;;25.61;41.15;102026.69;5085698;28;20654;-71
2022/07/04 02:46:14;;;;;;;6.20;2.70;;;;;;;25.57;41.42;102026.88;5087754;28;20036;-71
2022/07/04 02:48:39;;;;;;;6.20;2.83;;;;;;;25.43;41.47;102034.81;5085714;28;20020;-71
2022/07/04 02:51:04;;;;;;;7.10;3.10;;;;;;;25.45;41.94;102024.88;5073132;28;20362;-70
2022/07/04 02:53:30;;;;;;;7.80;2.92;;;;;;;25.39;41.87;102023.41;5069798;28;20063;-71
2022/07/04 02:55:55;;;;;;;6.15;3.42;;;;;;;25.47;41.53;102025.66;5071253;28;20184;-71
2022/07/04 02:58:20;;;;;;;8.00;3.47;;;;;;;25.80;40.89;102030.13;5070983;28;20392;-71
2022/07/04 03:00:46;;;;;;;3.10;2.63;;;;;;;25.79;41.29;102030.16;5080288;28;20051;-71
2022/07/04 03:03:11;;;;;;;7.72;2.58;;;;;;;25.99;40.66;102023.72;5088306;28;20024;-70
2022/07/04 03:05:37;;;;;;;4.20;2.42;;;;;;;25.67;41.25;102021.03;5073133;28;20056;-71
2022/07/04 03:08:03;;;;;;;5.90;2.90;;;;;;;25.62;41.65;102026.63;5074364;28;20029;-71
2022/07/04 03:10:28;;;;;;;3.90;2.33;;;;;;;25.53;41.68;102025.31;5073453;28;20032;-71
2022/07/04 03:12:53;;;;;;;6.70;2.50;;;;;;;25.40;42.26;102021.56;5078268;28;20028;-72
2022/07/04 03:15:19;;;;;;;6.28;2.35;;;;;;;25.52;41.85;102028.09;5093844;28;20039;-72
2022/07/04 03:17:44;;;;;;;6.07;2.25;;;;;;;25.37;41.78;102021.75;5086561;28;20028;-72
2022/07/04 03:20:10;;;;;;;6.05;2.38;;;;;;;25.53;41.87;102019.13;5088676;28;20085;-72
2022/07/04 03:22:35;;;;;;;2.55;2.35;;;;;;;25.46;41.84;102026.59;5093815;28;20476;-72
2022/07/04 03:25:01;;;;;;;8.38;2.60;;;;;;;25.06;42.80;102028.72;5091737;28;20464;-72
2022/07/04 03:27:26;;;;;;;6.65;2.50;;;;;;;25.23;42.48;102028.66;5072924;28;20119;-72
2022/07/04 03:29:51;;;;;;;5.72;2.75;;;;;;;25.10;42.56;102019.59;5073287;28;20024;-71
2022/07/04 03:32:17;;;;;;;6.90;2.90;;;;;;;25.10;42.40;102027.59;5075703;28;21172;-72
2022/07/04 03:34:42;;;;;;;4.28;2.10;;;;;;;25.34;42.23;102021.91;5094568;28;20115;-72
2022/07/04 03:37:07;;;;;;;3.53;2.47;;;;;;;25.11;42.53;102032.00;5088254;28;20024;-72
2022/07/04 03:39:33;;;;;;;6.22;2.40;;;;;;;25.42;41.73;102037.53;5080421;28;20043;-72
2022/07/04 03:41:58;;;;;;;8.27;2.38;;;;;;;25.46;41.83;102037.31;5072879;28;20045;-72
2022/07/04 03:44:23;;;;;;;6.90;2.63;;;;;;;25.41;42.16;102031.34;5075542;28;20032;-72
2022/07/04 03:46:49;;;;;;;6.28;2.50;;;;;;;25.50;41.99;102036.19;5077174;28;20062;-72
2022/07/04 03:49:14;;;;;;;4.13;2.10;;;;;;;25.47;42.09;102033.69;5084150;28;20036;-72
2022/07/04 03:51:40;;;;;;;3.38;2.40;;;;;;;25.22;43.04;102039.44;5072122;28;20025;-72
2022/07/04 03:54:05;;;;;;;8.55;2.80;;;;;;;25.02;43.42;102043.19;5073370;28;20074;-72
2022/07/04 03:56:30;;;;;;;6.68;2.78;;;;;;;25.12;43.37;102055.13;5074674;28;20032;-72
2022/07/04 03:58:56;;;;;;;6.50;2.72;;;;;;;25.01;43.54;102046.81;5074650;28;20032;-72
2022/07/04 04:01:21;;;;;;;6.82;2.60;;;;;;;25.20;42.98;102050.22;5081636;28;20070;-72
2022/07/04 04:06:31;;;;;;;5.80;2.50;;;;;;;24.75;44.43;102062.38;5073575;28;20097;-72
2022/07/04 04:08:56;;;;;;;6.50;2.67;;;;;;;24.88;44.15;102068.84;5071328;28;20036;-72
2022/07/04 04:11:22;;;;;;;5.85;2.75;;;;;;;24.31;46.01;102070.75;5073908;28;20118;-71
2022/07/04 04:13:48;;;;;;;7.22;3.00;;;;;;;24.45;45.75;102064.75;5073046;28;20469;-72
2022/07/04 04:16:14;;;;;;;7.30;2.40;;;;;;;23.99;47.33;102078.53;5072614;28;20060;-72
2022/07/04 04:18:39;;;;;;;9.68;3.38;;;;;;;24.93;45.12;102065.06;5092435;28;20472;-72
2022/07/04 04:21:05;;;;;;;6.22;2.70;;;;;;;24.82;45.52;102068.28;5092615;28;20035;-72
2022/07/04 04:23:30;;;;;;;4.68;2.80;;;;;;;25.29;43.86;102067.59;5093104;28;20455;-71
2022/07/04 04:25:56;;;;;;;8.38;2.83;;;;;;;25.09;45.31;102063.31;5077362;28;20032;-72
2022/07/04 04:28:22;;;;;;;11.25;3.38;;;;;;;24.49;46.73;102071.66;5071492;28;20031;-71
2022/07/04 04:30:48;;;;;;;10.68;3.20;;;;;;;24.34;47.29;102078.63;5078022;28;20036;-72
2022/07/04 04:33:13;;;;;;;5.32;2.70;;;;;;;24.87;45.83;102069.75;5072035;28;20024;-72
2022/07/04 04:35:39;;;;;;;4.63;2.47;;;;;;;24.71;46.55;102071.50;5071262;28;20338;-72
2022/07/04 04:38:04;;;;;;;4.78;2.50;;;;;;;24.67;47.40;102075.25;5070904;28;20101;-71
2022/07/04 04:40:30;;;;;;;7.05;2.75;;;;;;;25.08;46.46;102072.28;5071914;28;20028;-71
2022/07/04 04:42:55;;;;;;;5.25;2.70;;;;;;;23.55;51.36;102080.44;5070868;28;20052;-71
2022/07/04 04:45:21;;;;;;;5.60;2.58;;;;;;;24.78;48.31;102072.91;5074323;28;20035;-72
2022/07/04 04:47:46;;;;;;;5.90;2.25;;;;;;;24.53;50.44;102074.09;5071434;28;20033;-72
2022/07/04 04:50:13;;;;;;;6.93;3.03;;;;;;;26.05;45.72;102083.19;5070794;28;20040;-72
2022/07/04 04:52:39;;;;;;;8.15;2.67;;;;;;;26.96;43.78;102077.09;5072659;28;20059;-72
2022/07/04 04:55:04;;;;;;;5.25;2.60;;;;;;;27.83;41.67;102080.72;5072669;28;20107;-72
2022/07/04 04:57:30;;;;;;;5.93;2.50;;;;;;;27.56;41.58;102089.56;5075962;28;20062;-71
2022/07/04 04:59:55;;;;;;;3.13;2.10;;;;;;;28.50;41.11;102090.75;5071925;28;20032;-72
2022/07/04 05:02:20;;;;;;;9.13;1.92;;;;;;;28.07;40.12;102098.97;5071051;28;20028;-72
2022/07/04 05:04:46;;;;;;;5.05;1.80;;;;;;;28.99;38.62;102089.31;5070624;28;20058;-72
2022/07/04 05:07:11;;;;;;;4.32;1.92;;;;;;;28.07;40.03;102098.97;5070941;28;20036;-72
2022/07/04 05:09:37;;;;;;;7.05;2.00;;;;;;;28.56;39.27;102089.47;5071166;28;20035;-72
2022/07/04 05:12:02;;;;;;;7.47;1.65;;;;;;;29.09;37.74;102094.91;5070006;28;20098;-72
2022/07/04 05:14:28;;;;;;;6.38;1.85;;;;;;;29.22;38.46;102097.59;5088168;28;20149;-72
2022/07/04 05:16:54;;;;;;;13.40;2.25;;;;;;;28.99;38.19;102101.88;5091259;28;20054;-72
2022/07/04 05:19:19;;;;;;;5.78;2.17;;;;;;;28.21;39.69;102106.97;5088845;28;20031;-72
2022/07/04 05:21:44;;;;;;;8.32;2.33;;;;;;;26.43;43.47;102108.75;5083458;28;20065;-72
2022/07/04 05:24:11;;;;;;;7.00;2.10;;;;;;;27.55;41.30;102109.31;5091281;28;20099;-72
2022/07/04 05:26:37;;;;;;;3.22;1.85;;;;;;;27.13;41.78;102113.63;5089736;28;20024;-72
2022/07/04 05:29:02;;;;;;;7.15;2.05;;;;;;;26.53;43.82;102106.41;5074126;28;20032;-72
2022/07/04 05:31:28;;;;;;;4.75;1.95;;;;;;;26.80;42.55;102101.28;5070983;28;20036;-72
2022/07/04 05:33:54;;;;;;;4.00;2.10;;;;;;;27.43;41.72;102091.28;5070421;28;20036;-72
2022/07/04 05:36:20;;;;;;;4.35;2.10;;;;;;;26.75;42.50;102098.88;5082990;28;20036;-72
2022/07/04 05:38:45;;;;;;;7.07;1.95;;;;;;;27.40;41.70;102105.75;5083494;28;20024;-71
2022/07/04 05:41:11;;;;;;;10.38;2.30;;;;;;;27.43;41.86;102104.72;5070985;28;20028;-71
2022/07/04 05:43:36;;;;;;;10.48;2.67;;;;;;;26.85;42.97;102107.25;5063447;28;20158;-72
2022/07/04 05:46:03;;;;;;;8.18;2.35;;;;;;;27.24;42.83;102111.19;5052558;28;20525;-72
2022/07/04 05:48:28;;;;;;;7.00;2.30;;;;;;;27.85;41.23;102116.41;5048559;28;20111;-71
2022/07/04 05:50:54;;;;;;;8.55;2.45;;;;;;;28.02;41.11;102111.81;5038773;28;20025;-72
2022/07/04 05:53:19;;;;;;;6.07;2.83;;;;;;;26.73;44.19;102105.28;5043245;28;20094;-71
2022/07/04 05:55:45;;;;;;;9.73;2.60;;;;;;;27.63;42.30;102103.47;5052367;28;20020;-72
2022/07/04 05:58:10;;;;;;;10.20;2.50;;;;;;;27.54;42.47;102107.59;5042909;28;20397;-71
2022/07/04 06:00:36;;;;;;;11.15;2.42;;;;;;;26.91;43.11;102109.59;5036797;28;20131;-72
2022/07/04 06:03:01;;;;;;;8.45;2.58;;;;;;;27.67;42.50;102106.81;5053895;28;20067;-72
2022/07/04 06:05:26;;;;;;;4.28;2.45;;;;;;;27.81;41.92;102104.16;5034110;28;20061;-72
2022/07/04 06:07:52;;;;;;;5.70;2.22;;;;;;;28.63;39.91;102095.31;5060073;28;20111;-71
2022/07/04 06:10:17;;;;;;;6.63;2.08;;;;;;;28.54;39.95;102094.13;5068618;28;20044;-72
2022/07/04 06:12:43;;;;;;;10.02;2.35;;;;;;;28.44;40.08;102099.25;5036441;28;20477;-72
2022/07/04 06:15:09;;;;;;;4.65;2.50;;;;;;;27.14;42.46;102096.59;5055984;28;20028;-71
2022/07/04 06:17:36;;;;;;;8.95;2.28;;;;;;;27.93;41.39;102091.72;5036384;28;20037;-71
2022/07/04 06:20:01;;;;;;;11.65;2.13;;;;;;;29.70;38.47;102087.03;5052521;28;20068;-72
2022/07/04 06:22:26;;;;;;;4.10;2.00;;;;;;;31.22;37.05;102071.28;5050676;28;20154;-72
2022/07/04 06:24:52;;;;;;;6.50;1.80;;;;;;;31.21;33.76;102076.81;5048651;28;20108;-72
2022/07/04 06:27:17;;;;;;;4.03;1.70;;;;;;;32.62;32.22;102077.13;5053701;28;20385;-72
2022/07/04 06:29:43;;;;;;;4.95;1.40;;;;;;;33.16;30.26;102077.91;5052913;28;20017;-72
2022/07/04 06:32:08;;;;;;;4.13;1.45;;;;;;;33.94;29.10;102081.00;5042078;28;20032;-72
2022/07/04 06:37:17;;;;;;;4.75;1.63;;;;;;;36.32;26.53;102087.47;5055687;28;20079;-72
2022/07/04 06:39:43;;;;;;;4.63;1.67;;;;;;;35.53;26.04;102081.63;5055466;28;20021;-72
2022/07/04 06:42:08;;;;;;;6.35;1.98;;;;;;;35.92;25.41;102095.00;5051088;28;20063;-72
2022/07/04 06:44:33;;;;;;;4.07;1.30;;;;;;;34.62;25.78;102085.66;5077393;28;20028;-72
2022/07/04 06:46:59;;;;;;;2.78;0.90;;;;;;;34.60;26.01;102084.94;5094343;28;20072;-72
2022/07/04 06:49:24;;;;;;;3.58;0.80;;;;;;;33.27;27.27;102083.28;5085158;28;20028;-72
2022/07/04 06:51:49;;;;;;;4.85;1.10;;;;;;;36.76;23.95;102089.38;5082335;28;20035;-72
2022/07/04 06:54:15;;;;;;;2.17;0.85;;;;;;;35.85;25.19;102091.22;5080196;28;20337;-72
2022/07/04 06:56:41;;;;;;;2.80;0.82;;;;;;;36.93;22.54;102093.97;5077969;28;20025;-72
2022/07/04 06:59:06;;;;;;;5.18;1.10;;;;;;;36.29;24.83;102101.38;5094871;28;20024;-72
2022/07/04 07:01:32;;;;;;;3.42;0.85;;;;;;;37.25;23.04;102100.63;5080968;28;20032;-72
2022/07/04 07:03:57;;;;;;;3.90;1.17;;;;;;;37.90;22.23;102096.53;5071917;28;20120;-72
2022/07/04 07:06:23;;;;;;;2.88;0.88;;;;;;;37.05;22.58;102102.72;5056872;28;20032;-72
2022/07/04 07:08:49;;;;;;;1.73;0.88;;;;;;;35.41;23.70;102107.28;5079363;28;20035;-72
2022/07/04 07:11:17;;;;;;;1.35;0.80;;;;;;;35.87;23.66;102105.50;5083050;28;20028;-72
2022/07/04 07:13:44;;;;;;;2.80;1.02;;;;;;;34.71;25.37;102093.94;5091183;28;20032;-72
2022/07/04 07:16:09;;;;;;;4.80;1.20;;;;;;;35.46;23.96;102096.78;5077140;28;20419;-72
2022/07/04 07:18:35;;;;;;;3.33;0.90;;;;;;;35.75;24.63;102101.22;5071239;28;20032;-72
2022/07/04 07:21:01;;;;;;;1.10;0.82;;;;;;;36.86;23.29;102102.91;5089938;28;20549;-71
2022/07/04 07:23:26;;;;;;;1.73;0.88;;;;;;;35.75;24.01;102098.50;5088746;28;20021;-72
2022/07/04 07:25:51;;;;;;;1.35;0.68;;;;;;;35.76;24.59;102106.50;5082795;28;20063;-72
2022/07/04 07:28:18;;;;;;;4.25;1.40;;;;;;;32.85;28.03;102104.09;5086685;28;20020;-72
2022/07/04 07:30:43;;;;;;;1.25;1.02;;;;;;;35.38;24.62;102103.00;5084547;28;20146;-72
2022/07/04 07:33:09;;;;;;;2.85;1.05;;;;;;;36.75;24.29;102106.72;5081995;28;20050;-72
2022/07/04 07:35:34;;;;;;;4.00;1.13;;;;;;;37.87;22.39;102107.78;5071226;28;20028;-72
2022/07/04 07:37:59;;;;;;;3.67;0.90;;;;;;;39.18;21.13;102100.72;5075064;28;20020;-72
2022/07/04 07:40:25;;;;;;;2.88;0.88;;;;;;;37.44;20.98;102115.94;5073456;28;20107;-72
2022/07/04 07:42:50;;;;;;;2.30;0.93;;;;;;;37.79;20.64;102110.47;5075293;28;20067;-72
2022/07/04 07:45:16;;;;;;;2.10;0.70;;;;;;;35.43;23.88;102111.53;5078008;28;20110;-72
2022/07/04 07:47:42;;;;;;;1.33;0.70;;;;;;;33.31;25.97;102114.53;5082250;28;20072;-72
2022/07/04 07:50:09;;;;;;;1.73;1.05;;;;;;;34.14;25.19;102116.28;5072136;28;20098;-72
2022/07/04 07:52:34;;;;;;;3.17;0.93;;;;;;;35.08;24.47;102120.34;5078027;28;20629;-72
2022/07/04 07:54:59;;;;;;;2.38;1.00;;;;;;;35.87;23.37;102119.09;5086452;28;20032;-72
2022/07/04 07:57:25;;;;;;;0.90;0.60;;;;;;;35.84;22.65;102119.41;5079355;28;20020;-72
2022/07/04 07:59:50;;;;;;;2.30;1.05;;;;;;;36.94;20.84;102122.91;5084063;28;20443;-72
2022/07/04 08:02:16;;;;;;;2.20;0.95;;;;;;;36.83;21.94;102120.44;5070588;28;20029;-72
2022/07/04 08:04:41;;;;;;;2.15;0.90;;;;;;;37.31;20.51;102119.06;5073958;28;20016;-72
2022/07/04 08:07:09;;;;;;;0.93;0.70;;;;;;;37.96;20.40;102123.16;5055259;28;20503;-72
2022/07/04 08:09:36;;;;;;;2.75;0.68;;;;;;;37.88;20.85;102114.94;5076826;28;20029;-72
2022/07/04 08:12:03;;;;;;;3.70;0.70;;;;;;;37.72;19.69;102110.25;5071958;28;20031;-72
2022/07/04 08:14:29;;;;;;;2.85;0.88;;;;;;;38.48;19.74;102121.22;5074762;28;20040;-72
2022/07/04 08:16:55;;;;;;;2.47;0.90;;;;;;;36.62;20.74;102123.47;5090212;28;20085;-72
2022/07/04 08:19:20;;;;;;;1.70;0.75;;;;;;;39.23;19.50;102133.84;5088383;28;20039;-72
2022/07/04 08:21:49;;;;;;;2.38;1.10;;;;;;;36.78;20.15;102133.63;5077014;28;20043;-71
2022/07/04 08:24:14;;;;;;;1.88;0.77;;;;;;;37.65;19.58;102136.47;5080114;28;20027;-72
2022/07/04 08:26:40;;;;;;;1.60;0.85;;;;;;;37.70;20.53;102139.53;5079600;28;20020;-72
2022/07/04 08:29:05;;;;;;;1.23;0.70;;;;;;;37.92;20.69;102137.28;5068960;28;20081;-72
2022/07/04 08:31:30;;;;;;;0.73;0.70;;;;;;;37.35;20.55;102142.25;5076372;28;20383;-72
2022/07/04 08:33:56;;;;;;;3.33;1.20;;;;;;;36.49;20.10;102145.63;5092926;28;20383;-72
2022/07/04 08:36:21;;;;;;;1.13;0.73;;;;;;;35.96;21.12;102134.50;5089885;28;20078;-71
2022/07/04 08:38:47;;;;;;;0.63;0.63;;;;;;;35.10;21.41;102153.63;5092544;28;20105;-72
2022/07/04 08:41:16;;;;;;;1.45;0.75;;;;;;;33.08;23.91;102159.81;5086493;28;20286;-72
2022/07/04 08:43:41;;;;;;;1.42;0.90;;;;;;;32.97;24.88;102158.06;5070715;28;20255;-72
2022/07/04 08:46:09;;;;;;;2.05;0.80;;;;;;;32.02;25.73;102160.47;5074560;28;20123;-71
2022/07/04 08:48:38;;;;;;;5.95;1.35;;;;;;;32.85;25.25;102153.69;5078190;28;20123;-72
2022/07/04 08:51:15;;;;;;;4.25;1.15;;;;;;;30.88;26.99;102154.00;5072656;28;20032;-72
2022/07/04 08:53:50;;;;;;;1.95;1.13;;;;;;;28.75;30.67;102159.06;5085291;28;20020;-73
2022/07/04 08:59:02;;;;;;;2.67;1.20;;;;;;;31.27;27.61;102151.91;5083145;28;20097;-72
2022/07/04 09:01:29;;;;;;;1.83;1.00;;;;;;;30.90;28.58;102158.28;5071534;28;20021;-72
2022/07/04 09:03:56;;;;;;;6.35;1.33;;;;;;;29.59;30.15;102157.00;5073251;28;20141;-72
2022/07/04 09:06:21;;;;;;;7.45;1.30;;;;;;;30.74;29.54;102155.03;5086463;28;20088;-72
2022/07/04 09:08:47;;;;;;;2.88;1.30;;;;;;;30.44;29.21;102159.91;5091517;28;20035;-72
2022/07/04 09:11:12;;;;;;;3.22;1.20;;;;;;;31.05;28.75;102160.81;5092056;28;20132;-71
2022/07/04 09:13:38;;;;;;;1.10;1.00;;;;;;;30.79;29.15;102161.81;5086013;28;20085;-72
2022/07/04 09:16:04;;;;;;;5.70;1.08;;;;;;;31.71;28.05;102163.81;5073437;28;20113;-72
2022/07/04 09:18:34;;;;;;;3.25;1.50;;;;;;;31.85;27.99;102159.13;5070373;28;20028;-72
2022/07/04 09:21:02;;;;;;;1.98;1.30;;;;;;;32.10;27.47;102163.44;5080321;28;20038;-72
2022/07/04 09:23:33;;;;;;;3.20;1.20;;;;;;;30.45;28.28;102168.88;5088837;28;20491;-72
2022/07/04 09:26:10;;;;;;;5.90;1.45;;;;;;;30.26;28.41;102159.38;5060962;28;20519;-72
2022/07/04 09:28:37;;;;;;;2.83;1.13;;;;;;;31.17;27.86;102165.28;5071593;28;20059;-72
2022/07/04 09:31:13;;;;;;;3.22;1.20;;;;;;;32.46;26.73;102159.56;5076501;28;20504;-72
2022/07/04 09:33:54;;;;;;;1.80;0.88;;;;;;;34.10;23.89;102148.25;5088386;28;20023;-72
2022/07/04 09:36:22;;;;;;;3.13;1.45;;;;;;;34.14;24.66;102162.38;5084252;28;20028;-73
2022/07/04 09:39:06;;;;;;;1.58;0.85;;;;;;;34.30;23.59;102160.03;5069263;28;20031;-72
2022/07/04 09:42:09;;;;;;;1.50;0.85;;;;;;;37.42;21.63;102158.00;5072396;28;20055;-73
2022/07/04 09:44:34;;;;;;;1.35;1.05;;;;;;;34.86;22.39;102163.09;5049452;28;20408;-73
2022/07/04 09:47:22;;;;;;;1.73;1.00;;;;;;;36.12;21.49;102157.44;5051297;28;20035;-74
2022/07/04 09:50:06;;;;;;;2.60;0.85;;;;;;;34.14;23.16;102162.38;5038320;28;20021;-73
2022/07/04 09:52:43;;;;;;;1.90;0.90;;;;;;;36.06;21.47;102160.78;5063565;28;20381;-73
2022/07/04 09:55:08;;;;;;;2.60;0.80;;;;;;;35.93;21.66;102145.69;5035889;28;20025;-74
2022/07/04 09:57:34;;;;;;;2.92;0.80;;;;;;;35.58;20.86;102155.41;5067133;28;20046;-75
2022/07/04 10:00:32;;;;;;;2.28;0.70;;;;;;;32.21;24.90;102166.13;5046782;28;20068;-73
2022/07/04 10:03:20;;;;;;;1.80;0.85;;;;;;;32.39;24.24;102155.66;5050615;28;20082;-73
2022/07/04 10:05:49;;;;;;;1.58;0.80;;;;;;;33.75;23.11;102148.69;5044629;28;20134;-73
2022/07/04 10:08:18;;;;;;;3.10;0.70;;;;;;;33.05;23.13;102153.81;5041996;28;20067;-74
2022/07/04 10:10:44;;;;;;;2.35;0.70;;;;;;;31.73;24.49;102152.88;5040473;28;20020;-73
2022/07/04 10:13:12;;;;;;;1.98;1.70;;;;;;;33.56;24.24;102153.00;5039074;28;20393;-73
2022/07/04 10:15:42;;;;;;;1.58;0.60;;;;;;;35.16;22.57;102153.91;5049441;28;20036;-74
2022/07/04 10:18:09;;;;;;;1.13;0.60;;;;;;;35.57;21.35;102145.56;5041350;28;20020;-74
2022/07/04 10:20:36;;;;;;;2.30;0.70;;;;;;;35.64;20.88;102146.66;5053378;28;20025;-74
2022/07/04 10:23:02;;;;;;;1.88;0.60;;;;;;;32.72;23.54;102153.00;5032170;28;20400;-73
2022/07/04 10:25:28;;;;;;;1.05;0.60;;;;;;;32.50;24.37;102154.75;5034866;28;20035;-73
2022/07/04 10:27:53;;;;;;;0.93;0.80;;;;;;;34.34;22.69;102154.34;5046021;28;20028;-73
2022/07/04 10:30:25;;;;;;;1.48;0.70;;;;;;;33.65;22.88;102160.34;5043756;28;20111;-73
2022/07/04 10:32:53;;;;;;;1.23;0.90;;;;;;;32.06;25.08;102156.53;5053433;28;20391;-73
2022/07/04 10:35:57;;;;;;;2.45;0.95;;;;;;;33.27;23.47;102151.00;5050442;28;20013;-74
2022/07/04 10:38:34;;;;;;;2.40;0.80;;;;;;;34.18;22.30;102146.69;5046901;28;20036;-73
2022/07/04 10:41:05;;;;;;;0.80;0.70;;;;;;;35.46;21.34;102148.44;5071224;28;20358;-73
2022/07/04 10:43:31;;;;;;;1.58;0.77;;;;;;;34.55;22.17;102149.63;5077554;28;20055;-73
2022/07/04 10:46:02;;;;;;;2.45;0.98;;;;;;;33.01;23.58;102158.63;5073968;28;20040;-73
2022/07/04 10:48:28;;;;;;;2.95;0.60;;;;;;;32.49;24.33;102153.03;5082232;28;20096;-73
2022/07/04 10:51:06;;;;;;;2.53;1.10;;;;;;;31.52;24.83;102160.78;5078918;28;20379;-74
2022/07/04 10:53:39;;;;;;;2.22;0.70;;;;;;;32.50;24.72;102162.88;5069194;28;20029;-74
2022/07/04 10:56:27;;;;;;;2.20;1.00;;;;;;;32.75;24.17;102156.28;5076009;28;20024;-73
2022/07/04 10:58:53;;;;;;;2.25;0.75;;;;;;;35.41;21.41;102151.59;5074312;28;20035;-74
2022/07/04 11:01:21;;;;;;;2.45;0.80;;;;;;;36.31;21.44;102143.78;5082626;28;20131;-75
2022/07/04 11:03:48;;;;;;;1.98;0.68;;;;;;;35.15;21.31;102148.63;5078375;28;20034;-75
2022/07/04 11:06:32;;;;;;;2.15;0.70;;;;;;;34.56;21.81;102151.34;5088791;28;20024;-73
2022/07/04 11:09:16;;;;;;;1.13;0.60;;;;;;;33.96;22.67;102143.22;5085194;28;20055;-74
2022/07/04 11:11:49;;;;;;;1.20;0.90;;;;;;;35.39;22.70;102147.31;5071404;28;20028;-75
2022/07/04 11:14:43;;;;;;;2.15;0.88;;;;;;;34.62;22.60;102150.81;5072371;28;20106;-74
2022/07/04 11:17:32;;;;;;;0.88;0.75;;;;;;;34.18;24.23;102147.56;5070250;28;20047;-74
2022/07/04 11:20:07;;;;;;;2.20;0.80;;;;;;;34.38;22.16;102147.63;5076419;28;20031;-75
2022/07/04 11:22:33;;;;;;;1.50;0.70;;;;;;;32.80;23.60;102148.63;5074294;28;20432;-74
2022/07/04 11:24:59;;;;;;;1.10;0.90;;;;;;;34.52;21.79;102144.50;5080669;28;20553;-74
2022/07/04 11:27:25;;;;;;;1.00;0.70;;;;;;;33.61;22.96;102144.50;5073325;28;20020;-73
2022/07/04 11:29:54;;;;;;;2.13;0.77;;;;;;;35.48;21.65;102149.16;5074400;28;20032;-74
2022/07/04 11:32:21;;;;;;;1.70;0.80;;;;;;;34.22;22.31;102140.84;5072604;28;20063;-74
2022/07/04 11:34:48;;;;;;;0.93;0.70;;;;;;;34.45;22.27;102146.91;5075847;28;20393;-73
2022/07/04 11:37:14;;;;;;;1.40;0.70;;;;;;;33.55;24.00;102143.19;5091855;28;20111;-74